createdAt,value
2019-06-07T00:00:03.403Z,16.79
2019-06-07T00:02:29.045Z,16.66
2019-06-07T00:04:55.376Z,16.55
2019-06-07T00:07:22.014Z,16.51
2019-06-07T00:09:48.030Z,16.65
2019-06-07T00:12:16.788Z,16.67
2019-06-07T00:14:40.654Z,16.64
2019-06-07T00:17:07.841Z,16.57
2019-06-07T00:19:33.282Z,16.60
2019-06-07T00:22:17.609Z,16.52
2019-06-07T00:24:25.927Z,16.34
2019-06-07T00:26:58.979Z,16.33
2019-06-07T00:29:19.582Z,16.22
2019-06-07T00:31:44.905Z,16.15
2019-06-07T00:34:12.002Z,16.12
2019-06-07T00:36:37.518Z,16.07
2019-06-07T00:39:03.851Z,16.32
2019-06-07T00:41:30.159Z,16.41
2019-06-07T00:43:56.494Z,16.53
2019-06-07T00:46:25.257Z,16.53
2019-06-07T00:48:49.129Z,16.35
2019-06-07T00:51:17.178Z,16.11
2019-06-07T00:53:41.763Z,16.19
2019-06-07T00:56:08.101Z,16.26
2019-06-07T00:58:34.393Z,16.23
2019-06-07T01:01:00.725Z,16.06
2019-06-07T01:03:27.041Z,16.19
2019-06-07T01:05:53.346Z,16.21
2019-06-07T01:08:22.745Z,16.19
2019-06-07T01:10:53.370Z,16.09
2019-06-07T01:13:14.981Z,15.93
2019-06-07T01:15:38.649Z,15.81
2019-06-07T01:18:36.131Z,15.87
2019-06-07T01:20:31.291Z,15.85
2019-06-07T01:22:57.620Z,16.00
2019-06-07T01:25:26.091Z,15.96
2019-06-07T01:27:50.243Z,15.87
2019-06-07T01:30:18.603Z,15.73
2019-06-07T01:32:42.886Z,15.75
2019-06-07T01:35:09.200Z,15.83
2019-06-07T01:37:35.532Z,15.86
2019-06-07T01:40:01.856Z,15.59
2019-06-07T01:42:29.421Z,15.35
2019-06-07T01:44:54.551Z,15.47
2019-06-07T01:47:24.778Z,15.57
2019-06-07T01:49:47.122Z,15.68
2019-06-07T01:52:13.459Z,15.57
2019-06-07T01:54:56.342Z,15.60
2019-06-07T01:57:06.099Z,15.62
2019-06-07T01:59:32.511Z,15.64
2019-06-07T02:01:58.752Z,15.68
2019-06-07T02:04:28.992Z,15.64
2019-06-07T02:06:51.392Z,15.67
2019-06-07T02:09:18.453Z,15.52
2019-06-07T02:11:44.038Z,15.23
2019-06-07T02:14:10.342Z,15.09
2019-06-07T02:16:36.677Z,15.23
2019-06-07T02:19:03.932Z,15.47
2019-06-07T02:21:33.400Z,15.37
2019-06-07T02:23:55.650Z,15.50
2019-06-07T02:26:22.967Z,15.50
2019-06-07T02:28:48.293Z,15.38
2019-06-07T02:31:14.609Z,15.23
2019-06-07T02:33:40.923Z,15.18
2019-06-07T02:36:07.272Z,15.11
2019-06-07T02:38:37.382Z,15.34
2019-06-07T02:40:59.920Z,15.53
2019-06-07T02:43:28.215Z,15.62
2019-06-07T02:45:52.557Z,15.50
2019-06-07T02:48:18.895Z,15.27
2019-06-07T02:50:45.195Z,15.04
2019-06-07T02:53:11.519Z,14.86
2019-06-07T02:56:33.300Z,14.90
2019-06-07T02:58:04.178Z,15.01
2019-06-07T03:01:05.654Z,15.12
2019-06-07T03:02:56.792Z,15.20
2019-06-07T03:05:23.100Z,15.29
2019-06-07T03:07:49.429Z,15.29
2019-06-07T03:10:15.744Z,15.35
2019-06-07T03:12:42.055Z,15.25
2019-06-07T03:15:08.381Z,15.16
2019-06-07T03:17:37.565Z,15.10
2019-06-07T03:20:01.023Z,15.03
2019-06-07T03:22:29.150Z,14.99
2019-06-07T03:24:53.654Z,15.01
2019-06-07T03:27:44.151Z,14.93
2019-06-07T03:29:46.303Z,15.06
2019-06-07T03:32:12.628Z,15.38
2019-06-07T03:34:43.320Z,15.61
2019-06-07T03:37:05.271Z,15.71
2019-06-07T03:39:33.473Z,15.52
2019-06-07T03:42:06.185Z,15.36
2019-06-07T03:44:24.217Z,15.40
2019-06-07T03:46:50.526Z,15.64
2019-06-07T03:49:16.853Z,15.64
2019-06-07T03:51:43.219Z,15.71
2019-06-07T03:54:09.511Z,15.64
2019-06-07T03:56:37.888Z,15.80
2019-06-07T03:59:02.158Z,15.82
2019-06-07T04:01:29.987Z,15.78
2019-06-07T04:03:54.828Z,15.60
2019-06-07T04:06:21.180Z,15.55
2019-06-07T04:08:47.439Z,15.68
2019-06-07T04:11:13.753Z,15.80
2019-06-07T04:13:42.968Z,15.93
2019-06-07T04:16:06.394Z,15.98
2019-06-07T04:18:33.042Z,15.99
2019-06-07T04:20:59.075Z,16.03
2019-06-07T04:23:28.192Z,15.92
2019-06-07T04:25:51.755Z,16.05
2019-06-07T04:28:18.070Z,16.17
2019-06-07T04:30:44.432Z,16.23
2019-06-07T04:33:10.711Z,16.24
2019-06-07T04:35:39.156Z,16.29
2019-06-07T04:38:03.339Z,16.39
2019-06-07T04:40:30.711Z,16.71
2019-06-07T04:42:56.042Z,16.78
2019-06-07T04:45:33.892Z,16.75
2019-06-07T04:47:48.639Z,16.80
2019-06-07T04:50:14.991Z,17.04
2019-06-07T04:52:44.830Z,17.23
2019-06-07T04:55:07.706Z,17.39
2019-06-07T04:57:35.370Z,17.48
2019-06-07T05:00:12.642Z,17.56
2019-06-07T05:02:26.653Z,17.66
2019-06-07T05:04:52.957Z,17.72
2019-06-07T05:07:19.288Z,18.02
2019-06-07T05:09:45.640Z,18.24
2019-06-07T05:12:11.964Z,18.41
2019-06-07T05:14:39.977Z,18.83
2019-06-07T05:17:04.607Z,19.17
2019-06-07T05:19:34.667Z,19.42
2019-06-07T05:22:04.405Z,19.81
2019-06-07T05:24:23.582Z,20.22
2019-06-07T05:26:49.914Z,20.65
2019-06-07T05:29:16.272Z,20.70
2019-06-07T05:31:45.499Z,20.84
2019-06-07T05:34:08.872Z,22.01
2019-06-07T05:36:38.625Z,23.72
2019-06-07T05:39:01.510Z,24.60
2019-06-07T05:41:27.835Z,25.27
2019-06-07T05:44:11.704Z,25.74
2019-06-07T05:46:20.505Z,25.51
2019-06-07T05:48:46.827Z,24.89
2019-06-07T05:51:13.134Z,24.23
2019-06-07T05:53:40.831Z,24.46
2019-06-07T05:56:05.817Z,25.02
2019-06-07T05:58:32.803Z,25.87
2019-06-07T06:01:41.756Z,25.83
2019-06-07T06:03:27.590Z,26.35
2019-06-07T06:05:55.600Z,26.53
2019-06-07T06:08:20.221Z,26.44
2019-06-07T06:10:48.641Z,26.64
2019-06-07T06:13:12.848Z,26.58
2019-06-07T06:15:46.377Z,27.19
2019-06-07T06:18:05.708Z,26.74
2019-06-07T06:20:34.371Z,25.54
2019-06-07T06:22:58.352Z,24.87
2019-06-07T06:25:33.982Z,24.13
2019-06-07T06:28:12.063Z,25.32
2019-06-07T06:30:17.471Z,26.37
2019-06-07T06:32:52.982Z,26.71
2019-06-07T06:35:10.131Z,27.35
2019-06-07T06:37:41.344Z,27.31
2019-06-07T06:40:02.867Z,27.34
2019-06-07T06:42:29.177Z,27.60
2019-06-07T06:44:55.552Z,27.14
2019-06-07T06:47:21.870Z,26.90
2019-06-07T06:49:49.979Z,27.33
2019-06-07T06:52:14.561Z,27.29
2019-06-07T06:54:46.593Z,26.84
2019-06-07T06:57:18.987Z,26.39
2019-06-07T06:59:39.168Z,26.68
2019-06-07T07:01:59.875Z,27.19
2019-06-07T07:04:26.201Z,27.19
2019-06-07T07:06:53.669Z,27.17
2019-06-07T07:09:18.836Z,26.57
2019-06-07T07:12:01.369Z,26.89
2019-06-07T07:14:11.510Z,26.96
2019-06-07T07:16:37.814Z,27.13
2019-06-07T07:19:04.165Z,27.17
2019-06-07T07:21:30.446Z,27.45
2019-06-07T07:24:19.601Z,28.25
2019-06-07T07:26:23.152Z,27.78
2019-06-07T07:28:53.969Z,27.22
2019-06-07T07:31:15.789Z,27.54
2019-06-07T07:34:23.902Z,27.88
2019-06-07T07:36:23.265Z,28.64
2019-06-07T07:38:34.776Z,28.50
2019-06-07T07:41:14.118Z,27.54
2019-06-07T07:43:27.421Z,26.80
2019-06-07T07:45:59.174Z,27.35
2019-06-07T07:48:20.062Z,28.28
2019-06-07T07:50:49.737Z,28.50
2019-06-07T07:53:12.701Z,29.00
2019-06-07T07:55:39.031Z,29.62
2019-06-07T07:58:05.350Z,29.74
2019-06-07T08:03:01.590Z,29.84
2019-06-07T08:05:39.992Z,29.83
2019-06-07T08:07:53.966Z,29.84
2019-06-07T08:10:17.024Z,30.41
2019-06-07T08:13:00.521Z,30.19
2019-06-07T08:15:09.688Z,30.66
2019-06-07T08:17:36.022Z,30.74
2019-06-07T08:20:02.984Z,30.21
2019-06-07T08:22:28.664Z,30.00
2019-06-07T08:24:55.959Z,30.55
2019-06-07T08:27:26.503Z,30.97
2019-06-07T08:30:03.840Z,30.98
2019-06-07T08:32:14.006Z,31.04
2019-06-07T08:34:40.337Z,30.87
2019-06-07T08:37:06.650Z,30.61
2019-06-07T08:39:32.979Z,31.28
2019-06-07T08:42:13.836Z,31.55
2019-06-07T08:44:25.844Z,30.94
2019-06-07T08:46:56.570Z,31.09
2019-06-07T08:49:18.267Z,31.40
2019-06-07T08:51:44.612Z,31.70
2019-06-07T08:54:22.272Z,31.55
2019-06-07T08:56:37.245Z,31.48
2019-06-07T08:59:11.143Z,31.57
2019-06-07T09:01:29.885Z,32.40
2019-06-07T09:04:02.803Z,31.69
2019-06-07T09:08:48.837Z,31.24
2019-06-07T09:11:15.172Z,31.75
2019-06-07T09:13:41.488Z,32.55
2019-06-07T09:16:09.000Z,32.65
2019-06-07T09:18:43.051Z,32.62
2019-06-07T09:21:06.077Z,32.30
2019-06-07T09:23:26.823Z,32.06
2019-06-07T09:26:02.634Z,32.27
2019-06-07T09:28:20.658Z,32.55
2019-06-07T09:30:45.765Z,32.91
2019-06-07T09:33:12.077Z,33.06
2019-06-07T09:35:38.418Z,33.40
2019-06-07T09:38:18.154Z,33.27
2019-06-07T09:40:31.079Z,33.50
2019-06-07T09:43:46.713Z,33.39
2019-06-07T09:45:23.717Z,33.60
2019-06-07T09:47:50.037Z,33.09
2019-06-07T09:50:16.350Z,33.22
2019-06-07T09:52:57.675Z,33.86
2019-06-07T09:55:22.958Z,33.38
2019-06-07T09:57:35.359Z,33.09
2019-06-07T10:00:21.342Z,33.28
2019-06-07T10:02:28.014Z,33.83
2019-06-07T10:04:54.372Z,33.91
2019-06-07T10:07:31.262Z,33.47
2019-06-07T10:12:13.392Z,33.92
2019-06-07T10:14:39.694Z,33.57
2019-06-07T10:17:07.246Z,33.46
2019-06-07T10:19:32.345Z,34.12
2019-06-07T10:21:59.159Z,34.05
2019-06-07T10:24:25.023Z,34.00
2019-06-07T10:26:51.387Z,33.90
2019-06-07T10:29:17.723Z,33.65
2019-06-07T23:14:42.501Z,19.93
2019-06-07T23:17:09.462Z,19.90
2019-06-07T23:19:35.082Z,19.81
2019-06-07T23:22:01.413Z,19.66
2019-06-07T23:24:27.739Z,19.56
2019-06-07T23:26:54.052Z,19.65
2019-06-07T23:29:20.730Z,19.55
2019-06-07T23:31:46.731Z,19.61
2019-06-07T23:34:13.063Z,19.51
2019-06-07T23:36:39.362Z,19.52
2019-06-07T23:39:05.722Z,19.53
2019-06-07T23:41:32.035Z,19.55
2019-06-07T23:43:58.333Z,19.50
2019-06-07T23:46:24.665Z,19.40
2019-06-07T23:48:50.963Z,19.37
2019-06-07T23:51:17.707Z,19.26
2019-06-07T23:53:43.612Z,19.43
2019-06-07T23:56:09.939Z,19.51
2019-06-07T23:58:36.241Z,19.51
